sensor_id;sensor_type;location;lat;lon;timestamp;P1;durP1;ratioP1;P2;durP2;ratioP2
59388;SDS011;51830;45.202;19.720;2023-05-15T00:01:34;13.98;;;4.13;;
59388;SDS011;51830;45.202;19.720;2023-05-15T00:04:09;13.63;;;4.10;;
59388;SDS011;51830;45.202;19.720;2023-05-15T00:06:36;13.75;;;3.55;;
59388;SDS011;51830;45.202;19.720;2023-05-15T00:09:02;13.80;;;4.22;;
59388;SDS011;51830;45.202;19.720;2023-05-15T00:11:29;16.25;;;3.95;;
59388;SDS011;51830;45.202;19.720;2023-05-15T00:13:55;15.02;;;4.13;;
59388;SDS011;51830;45.202;19.720;2023-05-15T00:16:21;15.27;;;3.75;;
59388;SDS011;51830;45.202;19.720;2023-05-15T00:18:48;12.48;;;3.58;;
59388;SDS011;51830;45.202;19.720;2023-05-15T00:21:14;14.18;;;3.88;;
59388;SDS011;51830;45.202;19.720;2023-05-15T00:23:41;10.55;;;3.13;;
59388;SDS011;51830;45.202;19.720;2023-05-15T00:26:07;12.98;;;3.85;;
59388;SDS011;51830;45.202;19.720;2023-05-15T00:28:33;14.05;;;3.92;;
59388;SDS011;51830;45.202;19.720;2023-05-15T00:30:59;16.00;;;4.15;;
59388;SDS011;51830;45.202;19.720;2023-05-15T00:33:25;13.02;;;4.03;;
59388;SDS011;51830;45.202;19.720;2023-05-15T00:35:52;15.60;;;4.28;;
59388;SDS011;51830;45.202;19.720;2023-05-15T00:38:18;14.57;;;4.03;;
59388;SDS011;51830;45.202;19.720;2023-05-15T00:40:44;15.30;;;3.92;;
59388;SDS011;51830;45.202;19.720;2023-05-15T00:43:10;13.23;;;4.30;;
59388;SDS011;51830;45.202;19.720;2023-05-15T00:45:38;13.43;;;3.95;;
59388;SDS011;51830;45.202;19.720;2023-05-15T00:48:06;14.63;;;4.07;;
59388;SDS011;51830;45.202;19.720;2023-05-15T00:50:34;14.40;;;4.15;;
59388;SDS011;51830;45.202;19.720;2023-05-15T00:53:00;13.95;;;3.78;;
59388;SDS011;51830;45.202;19.720;2023-05-15T00:55:28;16.50;;;4.32;;
59388;SDS011;51830;45.202;19.720;2023-05-15T00:57:55;14.98;;;4.35;;
59388;SDS011;51830;45.202;19.720;2023-05-15T01:00:31;14.65;;;3.90;;
59388;SDS011;51830;45.202;19.720;2023-05-15T01:02:58;14.27;;;3.65;;
59388;SDS011;51830;45.202;19.720;2023-05-15T01:05:25;17.27;;;4.20;;
59388;SDS011;51830;45.202;19.720;2023-05-15T01:08:15;14.73;;;4.28;;
59388;SDS011;51830;45.202;19.720;2023-05-15T01:10:38;16.52;;;3.80;;
59388;SDS011;51830;45.202;19.720;2023-05-15T01:13:06;16.08;;;3.90;;
59388;SDS011;51830;45.202;19.720;2023-05-15T01:15:34;15.65;;;4.40;;
59388;SDS011;51830;45.202;19.720;2023-05-15T01:18:00;14.48;;;4.22;;
59388;SDS011;51830;45.202;19.720;2023-05-15T01:20:27;14.23;;;4.00;;
59388;SDS011;51830;45.202;19.720;2023-05-15T01:28:08;16.30;;;4.45;;
59388;SDS011;51830;45.202;19.720;2023-05-15T01:30:35;13.93;;;4.20;;
59388;SDS011;51830;45.202;19.720;2023-05-15T01:38:05;14.88;;;4.35;;
59388;SDS011;51830;45.202;19.720;2023-05-15T01:40:31;13.45;;;3.88;;
59388;SDS011;51830;45.202;19.720;2023-05-15T01:42:59;16.33;;;3.78;;
59388;SDS011;51830;45.202;19.720;2023-05-15T01:45:26;14.70;;;4.40;;
59388;SDS011;51830;45.202;19.720;2023-05-15T01:47:53;14.00;;;3.63;;
59388;SDS011;51830;45.202;19.720;2023-05-15T01:50:19;16.00;;;4.50;;
59388;SDS011;51830;45.202;19.720;2023-05-15T01:52:47;18.10;;;4.95;;
59388;SDS011;51830;45.202;19.720;2023-05-15T01:55:14;13.98;;;3.60;;
59388;SDS011;51830;45.202;19.720;2023-05-15T01:57:40;19.23;;;4.32;;
59388;SDS011;51830;45.202;19.720;2023-05-15T02:00:07;14.77;;;4.15;;
59388;SDS011;51830;45.202;19.720;2023-05-15T02:02:35;14.18;;;4.35;;
59388;SDS011;51830;45.202;19.720;2023-05-15T02:05:01;15.25;;;4.25;;
59388;SDS011;51830;45.202;19.720;2023-05-15T02:07:28;15.20;;;4.20;;
59388;SDS011;51830;45.202;19.720;2023-05-15T02:10:05;12.80;;;4.07;;
59388;SDS011;51830;45.202;19.720;2023-05-15T02:12:31;14.80;;;4.47;;
59388;SDS011;51830;45.202;19.720;2023-05-15T02:14:58;15.23;;;4.53;;
59388;SDS011;51830;45.202;19.720;2023-05-15T02:17:25;13.82;;;4.35;;
59388;SDS011;51830;45.202;19.720;2023-05-15T02:19:53;19.30;;;5.60;;
59388;SDS011;51830;45.202;19.720;2023-05-15T02:22:19;22.08;;;7.78;;
59388;SDS011;51830;45.202;19.720;2023-05-15T02:24:46;16.17;;;5.20;;
59388;SDS011;51830;45.202;19.720;2023-05-15T02:27:16;16.63;;;4.68;;
59388;SDS011;51830;45.202;19.720;2023-05-15T02:30:02;16.75;;;5.93;;
59388;SDS011;51830;45.202;19.720;2023-05-15T02:35:16;16.42;;;5.47;;
59388;SDS011;51830;45.202;19.720;2023-05-15T02:37:47;20.30;;;5.53;;
59388;SDS011;51830;45.202;19.720;2023-05-15T02:40:14;18.65;;;5.75;;
59388;SDS011;51830;45.202;19.720;2023-05-15T02:42:41;15.85;;;5.25;;
59388;SDS011;51830;45.202;19.720;2023-05-15T02:45:09;15.75;;;5.47;;
59388;SDS011;51830;45.202;19.720;2023-05-15T02:47:35;16.13;;;5.10;;
59388;SDS011;51830;45.202;19.720;2023-05-15T02:50:01;16.92;;;5.75;;
59388;SDS011;51830;45.202;19.720;2023-05-15T02:52:28;17.40;;;5.25;;
59388;SDS011;51830;45.202;19.720;2023-05-15T02:55:00;18.05;;;6.13;;
59388;SDS011;51830;45.202;19.720;2023-05-15T02:57:26;15.60;;;5.30;;
59388;SDS011;51830;45.202;19.720;2023-05-15T02:59:53;26.17;;;5.32;;
59388;SDS011;51830;45.202;19.720;2023-05-15T03:02:20;16.40;;;5.07;;
59388;SDS011;51830;45.202;19.720;2023-05-15T03:04:46;15.07;;;4.50;;
59388;SDS011;51830;45.202;19.720;2023-05-15T03:07:12;16.55;;;4.80;;
59388;SDS011;51830;45.202;19.720;2023-05-15T03:09:38;13.55;;;4.32;;
59388;SDS011;51830;45.202;19.720;2023-05-15T03:12:14;14.98;;;4.70;;
59388;SDS011;51830;45.202;19.720;2023-05-15T03:14:40;15.88;;;4.60;;
59388;SDS011;51830;45.202;19.720;2023-05-15T03:17:06;14.30;;;4.47;;
59388;SDS011;51830;45.202;19.720;2023-05-15T03:19:32;15.23;;;4.53;;
59388;SDS011;51830;45.202;19.720;2023-05-15T03:21:59;14.73;;;4.03;;
59388;SDS011;51830;45.202;19.720;2023-05-15T03:24:25;14.05;;;4.38;;
59388;SDS011;51830;45.202;19.720;2023-05-15T03:26:51;13.60;;;4.20;;
59388;SDS011;51830;45.202;19.720;2023-05-15T03:29:17;14.32;;;3.95;;
59388;SDS011;51830;45.202;19.720;2023-05-15T03:31:43;14.02;;;4.03;;
59388;SDS011;51830;45.202;19.720;2023-05-15T03:34:10;13.90;;;3.78;;
59388;SDS011;51830;45.202;19.720;2023-05-15T03:36:36;14.88;;;4.22;;
59388;SDS011;51830;45.202;19.720;2023-05-15T03:39:02;16.35;;;4.10;;
59388;SDS011;51830;45.202;19.720;2023-05-15T03:41:29;14.77;;;4.28;;
59388;SDS011;51830;45.202;19.720;2023-05-15T03:43:55;14.57;;;4.55;;
59388;SDS011;51830;45.202;19.720;2023-05-15T03:46:21;16.63;;;5.65;;
59388;SDS011;51830;45.202;19.720;2023-05-15T03:48:47;17.23;;;6.10;;
59388;SDS011;51830;45.202;19.720;2023-05-15T03:51:14;15.85;;;5.20;;
59388;SDS011;51830;45.202;19.720;2023-05-15T03:53:40;14.55;;;4.70;;
59388;SDS011;51830;45.202;19.720;2023-05-15T03:56:06;13.82;;;4.22;;
59388;SDS011;51830;45.202;19.720;2023-05-15T03:58:32;14.85;;;4.20;;
59388;SDS011;51830;45.202;19.720;2023-05-15T04:00:58;14.80;;;4.40;;
59388;SDS011;51830;45.202;19.720;2023-05-15T04:03:25;16.52;;;4.47;;
59388;SDS011;51830;45.202;19.720;2023-05-15T04:05:51;15.68;;;4.63;;
59388;SDS011;51830;45.202;19.720;2023-05-15T04:08:17;15.55;;;5.40;;
59388;SDS011;51830;45.202;19.720;2023-05-15T04:10:43;15.18;;;5.28;;
59388;SDS011;51830;45.202;19.720;2023-05-15T04:13:13;18.92;;;7.05;;
59388;SDS011;51830;45.202;19.720;2023-05-15T04:15:39;15.73;;;5.05;;
59388;SDS011;51830;45.202;19.720;2023-05-15T04:18:05;16.90;;;5.90;;
59388;SDS011;51830;45.202;19.720;2023-05-15T04:20:32;16.20;;;5.35;;
59388;SDS011;51830;45.202;19.720;2023-05-15T04:22:58;17.35;;;5.60;;
59388;SDS011;51830;45.202;19.720;2023-05-15T04:25:24;16.33;;;5.00;;
59388;SDS011;51830;45.202;19.720;2023-05-15T04:27:52;19.55;;;6.68;;
59388;SDS011;51830;45.202;19.720;2023-05-15T04:30:18;16.02;;;5.80;;
59388;SDS011;51830;45.202;19.720;2023-05-15T04:32:44;14.85;;;4.97;;
59388;SDS011;51830;45.202;19.720;2023-05-15T04:35:10;14.55;;;4.70;;
59388;SDS011;51830;45.202;19.720;2023-05-15T04:37:38;14.40;;;4.53;;
59388;SDS011;51830;45.202;19.720;2023-05-15T04:40:06;14.50;;;4.80;;
59388;SDS011;51830;45.202;19.720;2023-05-15T04:42:33;15.27;;;4.20;;
59388;SDS011;51830;45.202;19.720;2023-05-15T04:45:00;16.83;;;4.28;;
59388;SDS011;51830;45.202;19.720;2023-05-15T04:47:27;12.48;;;3.38;;
59388;SDS011;51830;45.202;19.720;2023-05-15T04:49:53;13.50;;;3.78;;
59388;SDS011;51830;45.202;19.720;2023-05-15T04:52:19;12.77;;;3.30;;
59388;SDS011;51830;45.202;19.720;2023-05-15T04:54:46;12.40;;;3.08;;
59388;SDS011;51830;45.202;19.720;2023-05-15T04:57:15;11.00;;;3.33;;
59388;SDS011;51830;45.202;19.720;2023-05-15T04:59:41;12.77;;;3.60;;
59388;SDS011;51830;45.202;19.720;2023-05-15T05:02:08;12.77;;;3.55;;
59388;SDS011;51830;45.202;19.720;2023-05-15T05:04:34;13.07;;;3.63;;
59388;SDS011;51830;45.202;19.720;2023-05-15T05:07:00;12.27;;;3.60;;
59388;SDS011;51830;45.202;19.720;2023-05-15T05:09:30;13.05;;;4.13;;
59388;SDS011;51830;45.202;19.720;2023-05-15T05:11:59;14.13;;;4.22;;
59388;SDS011;51830;45.202;19.720;2023-05-15T05:14:26;14.05;;;4.00;;
59388;SDS011;51830;45.202;19.720;2023-05-15T05:16:52;22.83;;;8.48;;
59388;SDS011;51830;45.202;19.720;2023-05-15T05:19:18;16.73;;;5.10;;
59388;SDS011;51830;45.202;19.720;2023-05-15T05:21:45;13.98;;;4.22;;
59388;SDS011;51830;45.202;19.720;2023-05-15T05:24:11;22.55;;;6.65;;
59388;SDS011;51830;45.202;19.720;2023-05-15T05:26:37;22.60;;;7.90;;
59388;SDS011;51830;45.202;19.720;2023-05-15T05:29:03;31.73;;;9.98;;
59388;SDS011;51830;45.202;19.720;2023-05-15T05:31:30;32.03;;;11.60;;
59388;SDS011;51830;45.202;19.720;2023-05-15T05:33:56;24.38;;;9.70;;
59388;SDS011;51830;45.202;19.720;2023-05-15T05:36:22;24.00;;;7.50;;
59388;SDS011;51830;45.202;19.720;2023-05-15T05:38:49;32.85;;;10.30;;
59388;SDS011;51830;45.202;19.720;2023-05-15T05:41:15;23.73;;;7.95;;
59388;SDS011;51830;45.202;19.720;2023-05-15T05:43:41;14.88;;;3.92;;
59388;SDS011;51830;45.202;19.720;2023-05-15T05:46:08;13.95;;;3.83;;
59388;SDS011;51830;45.202;19.720;2023-05-15T05:48:34;19.35;;;4.22;;
59388;SDS011;51830;45.202;19.720;2023-05-15T05:51:01;13.48;;;3.65;;
59388;SDS011;51830;45.202;19.720;2023-05-15T05:53:27;17.98;;;4.88;;
59388;SDS011;51830;45.202;19.720;2023-05-15T05:55:53;13.90;;;3.40;;
59388;SDS011;51830;45.202;19.720;2023-05-15T05:58:19;11.25;;;3.00;;
59388;SDS011;51830;45.202;19.720;2023-05-15T06:00:46;10.98;;;2.55;;
59388;SDS011;51830;45.202;19.720;2023-05-15T06:03:12;13.30;;;3.30;;
59388;SDS011;51830;45.202;19.720;2023-05-15T06:05:38;10.05;;;2.85;;
59388;SDS011;51830;45.202;19.720;2023-05-15T06:08:05;12.23;;;3.40;;
59388;SDS011;51830;45.202;19.720;2023-05-15T06:10:31;17.65;;;5.63;;
59388;SDS011;51830;45.202;19.720;2023-05-15T06:12:57;14.50;;;4.47;;
59388;SDS011;51830;45.202;19.720;2023-05-15T06:15:23;16.58;;;4.60;;
59388;SDS011;51830;45.202;19.720;2023-05-15T06:17:50;16.90;;;4.90;;
59388;SDS011;51830;45.202;19.720;2023-05-15T06:20:16;13.63;;;3.95;;
59388;SDS011;51830;45.202;19.720;2023-05-15T06:22:42;31.48;;;11.32;;
59388;SDS011;51830;45.202;19.720;2023-05-15T06:25:09;17.45;;;5.10;;
59388;SDS011;51830;45.202;19.720;2023-05-15T06:27:38;19.35;;;8.40;;
59388;SDS011;51830;45.202;19.720;2023-05-15T06:30:05;18.33;;;8.32;;
59388;SDS011;51830;45.202;19.720;2023-05-15T06:32:31;15.63;;;5.13;;
59388;SDS011;51830;45.202;19.720;2023-05-15T06:34:58;14.35;;;4.00;;
59388;SDS011;51830;45.202;19.720;2023-05-15T06:37:24;14.60;;;3.92;;
59388;SDS011;51830;45.202;19.720;2023-05-15T06:39:50;13.23;;;4.00;;
59388;SDS011;51830;45.202;19.720;2023-05-15T06:42:16;13.82;;;3.80;;
59388;SDS011;51830;45.202;19.720;2023-05-15T06:44:44;13.57;;;3.67;;
59388;SDS011;51830;45.202;19.720;2023-05-15T06:47:11;14.05;;;3.83;;
59388;SDS011;51830;45.202;19.720;2023-05-15T06:49:37;13.55;;;3.72;;
59388;SDS011;51830;45.202;19.720;2023-05-15T06:52:04;14.43;;;3.92;;
59388;SDS011;51830;45.202;19.720;2023-05-15T06:54:30;13.60;;;3.97;;
59388;SDS011;51830;45.202;19.720;2023-05-15T06:56:56;14.80;;;4.55;;
59388;SDS011;51830;45.202;19.720;2023-05-15T06:59:22;15.68;;;4.80;;
59388;SDS011;51830;45.202;19.720;2023-05-15T07:01:48;15.10;;;4.45;;
59388;SDS011;51830;45.202;19.720;2023-05-15T07:04:14;13.27;;;3.92;;
59388;SDS011;51830;45.202;19.720;2023-05-15T07:06:41;14.05;;;3.70;;
59388;SDS011;51830;45.202;19.720;2023-05-15T07:09:07;13.00;;;3.67;;
59388;SDS011;51830;45.202;19.720;2023-05-15T07:11:34;15.43;;;4.43;;
59388;SDS011;51830;45.202;19.720;2023-05-15T07:14:02;12.70;;;3.63;;
59388;SDS011;51830;45.202;19.720;2023-05-15T07:16:29;13.18;;;3.85;;
59388;SDS011;51830;45.202;19.720;2023-05-15T07:18:55;13.88;;;4.10;;
59388;SDS011;51830;45.202;19.720;2023-05-15T07:21:22;15.10;;;3.58;;
59388;SDS011;51830;45.202;19.720;2023-05-15T07:23:48;10.63;;;2.90;;
59388;SDS011;51830;45.202;19.720;2023-05-15T07:26:14;9.82;;;2.85;;
59388;SDS011;51830;45.202;19.720;2023-05-15T07:28:40;9.23;;;2.60;;
59388;SDS011;51830;45.202;19.720;2023-05-15T07:31:06;9.50;;;2.45;;
59388;SDS011;51830;45.202;19.720;2023-05-15T07:33:33;9.00;;;2.50;;
59388;SDS011;51830;45.202;19.720;2023-05-15T07:35:59;12.05;;;3.30;;
59388;SDS011;51830;45.202;19.720;2023-05-15T07:38:25;15.27;;;4.63;;
59388;SDS011;51830;45.202;19.720;2023-05-15T07:40:51;14.50;;;3.92;;
59388;SDS011;51830;45.202;19.720;2023-05-15T07:43:17;14.85;;;4.28;;
59388;SDS011;51830;45.202;19.720;2023-05-15T07:45:43;15.10;;;4.07;;
59388;SDS011;51830;45.202;19.720;2023-05-15T07:48:14;14.75;;;4.13;;
59388;SDS011;51830;45.202;19.720;2023-05-15T07:50:40;11.20;;;2.85;;
59388;SDS011;51830;45.202;19.720;2023-05-15T07:53:06;11.85;;;3.00;;
59388;SDS011;51830;45.202;19.720;2023-05-15T07:55:33;15.18;;;4.43;;
59388;SDS011;51830;45.202;19.720;2023-05-15T07:57:59;13.88;;;4.10;;
59388;SDS011;51830;45.202;19.720;2023-05-15T08:00:25;14.10;;;4.15;;
59388;SDS011;51830;45.202;19.720;2023-05-15T08:02:51;12.13;;;3.67;;
59388;SDS011;51830;45.202;19.720;2023-05-15T08:05:17;22.23;;;4.00;;
59388;SDS011;51830;45.202;19.720;2023-05-15T08:07:44;14.05;;;4.43;;
59388;SDS011;51830;45.202;19.720;2023-05-15T08:10:10;16.00;;;4.57;;
59388;SDS011;51830;45.202;19.720;2023-05-15T08:12:36;14.75;;;4.10;;
59388;SDS011;51830;45.202;19.720;2023-05-15T08:15:02;15.45;;;4.65;;
59388;SDS011;51830;45.202;19.720;2023-05-15T08:17:29;13.98;;;4.18;;
59388;SDS011;51830;45.202;19.720;2023-05-15T08:19:55;15.15;;;4.43;;
59388;SDS011;51830;45.202;19.720;2023-05-15T08:22:21;15.35;;;5.07;;
59388;SDS011;51830;45.202;19.720;2023-05-15T08:24:47;15.40;;;4.63;;
59388;SDS011;51830;45.202;19.720;2023-05-15T08:27:13;15.13;;;4.70;;
59388;SDS011;51830;45.202;19.720;2023-05-15T08:29:39;16.42;;;4.60;;
59388;SDS011;51830;45.202;19.720;2023-05-15T08:32:06;15.20;;;5.10;;
59388;SDS011;51830;45.202;19.720;2023-05-15T08:34:32;15.70;;;4.40;;
59388;SDS011;51830;45.202;19.720;2023-05-15T08:36:58;15.65;;;5.13;;
59388;SDS011;51830;45.202;19.720;2023-05-15T08:39:24;14.32;;;4.07;;
59388;SDS011;51830;45.202;19.720;2023-05-15T08:41:59;14.75;;;4.38;;
59388;SDS011;51830;45.202;19.720;2023-05-15T08:44:27;15.70;;;4.53;;
59388;SDS011;51830;45.202;19.720;2023-05-15T08:46:54;16.83;;;4.85;;
59388;SDS011;51830;45.202;19.720;2023-05-15T08:52:05;13.95;;;4.10;;
59388;SDS011;51830;45.202;19.720;2023-05-15T08:54:31;13.43;;;3.88;;
59388;SDS011;51830;45.202;19.720;2023-05-15T08:56:58;11.05;;;3.00;;
59388;SDS011;51830;45.202;19.720;2023-05-15T08:59:25;8.80;;;2.30;;
59388;SDS011;51830;45.202;19.720;2023-05-15T09:01:51;5.22;;;1.75;;
59388;SDS011;51830;45.202;19.720;2023-05-15T09:04:18;7.63;;;2.17;;
59388;SDS011;51830;45.202;19.720;2023-05-15T09:06:44;8.32;;;2.00;;
59388;SDS011;51830;45.202;19.720;2023-05-15T09:09:11;9.05;;;2.40;;
59388;SDS011;51830;45.202;19.720;2023-05-15T09:11:44;9.68;;;2.35;;
59388;SDS011;51830;45.202;19.720;2023-05-15T09:14:11;10.48;;;2.67;;
59388;SDS011;51830;45.202;19.720;2023-05-15T09:16:37;9.57;;;2.92;;
59388;SDS011;51830;45.202;19.720;2023-05-15T09:19:04;13.50;;;3.03;;
59388;SDS011;51830;45.202;19.720;2023-05-15T09:21:30;11.90;;;3.08;;
59388;SDS011;51830;45.202;19.720;2023-05-15T09:24:16;11.63;;;3.22;;
59388;SDS011;51830;45.202;19.720;2023-05-15T09:26:43;14.57;;;3.95;;
59388;SDS011;51830;45.202;19.720;2023-05-15T09:29:10;13.75;;;3.47;;
59388;SDS011;51830;45.202;19.720;2023-05-15T09:31:36;11.57;;;3.17;;
59388;SDS011;51830;45.202;19.720;2023-05-15T09:34:02;12.95;;;3.30;;
59388;SDS011;51830;45.202;19.720;2023-05-15T09:36:30;15.57;;;4.07;;
59388;SDS011;51830;45.202;19.720;2023-05-15T09:39:00;12.65;;;3.97;;
59388;SDS011;51830;45.202;19.720;2023-05-15T09:41:27;13.25;;;3.78;;
59388;SDS011;51830;45.202;19.720;2023-05-15T09:43:53;17.00;;;4.80;;
59388;SDS011;51830;45.202;19.720;2023-05-15T09:46:23;14.48;;;4.20;;
59388;SDS011;51830;45.202;19.720;2023-05-15T09:48:53;14.35;;;3.67;;
59388;SDS011;51830;45.202;19.720;2023-05-15T09:51:20;15.77;;;4.85;;
59388;SDS011;51830;45.202;19.720;2023-05-15T09:53:50;19.08;;;6.18;;
59388;SDS011;51830;45.202;19.720;2023-05-15T09:56:17;16.77;;;5.07;;
59388;SDS011;51830;45.202;19.720;2023-05-15T09:58:53;14.48;;;4.45;;
59388;SDS011;51830;45.202;19.720;2023-05-15T10:01:20;14.02;;;4.43;;
59388;SDS011;51830;45.202;19.720;2023-05-15T10:03:56;14.77;;;4.50;;
59388;SDS011;51830;45.202;19.720;2023-05-15T10:06:23;15.43;;;4.20;;
59388;SDS011;51830;45.202;19.720;2023-05-15T10:08:53;14.82;;;4.53;;
59388;SDS011;51830;45.202;19.720;2023-05-15T10:11:19;16.27;;;4.03;;
59388;SDS011;51830;45.202;19.720;2023-05-15T10:13:47;13.65;;;3.55;;
59388;SDS011;51830;45.202;19.720;2023-05-15T10:16:13;15.57;;;3.97;;
59388;SDS011;51830;45.202;19.720;2023-05-15T10:18:39;13.23;;;3.78;;
59388;SDS011;51830;45.202;19.720;2023-05-15T10:21:08;12.63;;;3.78;;
59388;SDS011;51830;45.202;19.720;2023-05-15T10:23:35;14.85;;;4.05;;
59388;SDS011;51830;45.202;19.720;2023-05-15T10:26:03;14.48;;;4.20;;
59388;SDS011;51830;45.202;19.720;2023-05-15T10:28:31;13.95;;;4.30;;
59388;SDS011;51830;45.202;19.720;2023-05-15T10:30:58;17.02;;;4.25;;
59388;SDS011;51830;45.202;19.720;2023-05-15T10:33:25;13.75;;;3.85;;
59388;SDS011;51830;45.202;19.720;2023-05-15T10:35:52;15.27;;;4.45;;
59388;SDS011;51830;45.202;19.720;2023-05-15T10:38:18;16.83;;;5.13;;
59388;SDS011;51830;45.202;19.720;2023-05-15T10:40:45;17.30;;;5.97;;
59388;SDS011;51830;45.202;19.720;2023-05-15T10:43:12;16.98;;;6.15;;
59388;SDS011;51830;45.202;19.720;2023-05-15T10:45:38;19.17;;;6.72;;
59388;SDS011;51830;45.202;19.720;2023-05-15T10:48:05;16.80;;;6.03;;
59388;SDS011;51830;45.202;19.720;2023-05-15T10:50:32;22.00;;;6.03;;
59388;SDS011;51830;45.202;19.720;2023-05-15T10:52:58;17.80;;;6.07;;
59388;SDS011;51830;45.202;19.720;2023-05-15T10:55:25;18.20;;;5.63;;
59388;SDS011;51830;45.202;19.720;2023-05-15T10:57:51;21.52;;;6.70;;
59388;SDS011;51830;45.202;19.720;2023-05-15T11:02:48;18.10;;;6.45;;
59388;SDS011;51830;45.202;19.720;2023-05-15T11:05:20;19.30;;;6.03;;
59388;SDS011;51830;45.202;19.720;2023-05-15T11:10:35;17.42;;;6.47;;
59388;SDS011;51830;45.202;19.720;2023-05-15T11:13:02;19.63;;;6.05;;
59388;SDS011;51830;45.202;19.720;2023-05-15T11:15:39;18.90;;;6.78;;
59388;SDS011;51830;45.202;19.720;2023-05-15T11:18:06;18.27;;;6.35;;
59388;SDS011;51830;45.202;19.720;2023-05-15T11:20:33;16.33;;;5.85;;
59388;SDS011;51830;45.202;19.720;2023-05-15T11:23:02;18.40;;;6.15;;
59388;SDS011;51830;45.202;19.720;2023-05-15T11:25:29;17.25;;;5.47;;
59388;SDS011;51830;45.202;19.720;2023-05-15T11:27:58;16.95;;;5.90;;
59388;SDS011;51830;45.202;19.720;2023-05-15T11:30:34;19.77;;;5.55;;
59388;SDS011;51830;45.202;19.720;2023-05-15T11:33:03;17.83;;;5.32;;
59388;SDS011;51830;45.202;19.720;2023-05-15T11:35:39;17.83;;;5.88;;
59388;SDS011;51830;45.202;19.720;2023-05-15T11:38:17;16.70;;;5.20;;
59388;SDS011;51830;45.202;19.720;2023-05-15T11:40:52;18.77;;;4.97;;
59388;SDS011;51830;45.202;19.720;2023-05-15T11:43:28;16.05;;;5.40;;
59388;SDS011;51830;45.202;19.720;2023-05-15T11:45:56;16.60;;;5.20;;
59388;SDS011;51830;45.202;19.720;2023-05-15T11:48:42;17.40;;;5.97;;
59388;SDS011;51830;45.202;19.720;2023-05-15T11:51:14;19.42;;;5.97;;
59388;SDS011;51830;45.202;19.720;2023-05-15T11:53:40;16.52;;;5.55;;
59388;SDS011;51830;45.202;19.720;2023-05-15T11:56:11;16.30;;;5.57;;
59388;SDS011;51830;45.202;19.720;2023-05-15T11:58:38;18.45;;;6.38;;
59388;SDS011;51830;45.202;19.720;2023-05-15T12:01:04;17.25;;;5.88;;
59388;SDS011;51830;45.202;19.720;2023-05-15T12:03:33;18.65;;;6.72;;
59388;SDS011;51830;45.202;19.720;2023-05-15T12:06:00;19.65;;;6.85;;
59388;SDS011;51830;45.202;19.720;2023-05-15T12:08:36;17.90;;;6.38;;
59388;SDS011;51830;45.202;19.720;2023-05-15T12:11:03;20.55;;;7.13;;
59388;SDS011;51830;45.202;19.720;2023-05-15T12:13:30;18.27;;;6.82;;
59388;SDS011;51830;45.202;19.720;2023-05-15T12:15:56;19.50;;;7.60;;
59388;SDS011;51830;45.202;19.720;2023-05-15T12:18:23;19.52;;;7.25;;
59388;SDS011;51830;45.202;19.720;2023-05-15T12:20:52;17.95;;;7.03;;
59388;SDS011;51830;45.202;19.720;2023-05-15T12:23:19;20.65;;;6.93;;
59388;SDS011;51830;45.202;19.720;2023-05-15T12:25:46;22.10;;;7.00;;
59388;SDS011;51830;45.202;19.720;2023-05-15T12:28:13;19.58;;;6.60;;
59388;SDS011;51830;45.202;19.720;2023-05-15T12:30:40;19.60;;;7.03;;
59388;SDS011;51830;45.202;19.720;2023-05-15T12:33:07;20.83;;;7.03;;
59388;SDS011;51830;45.202;19.720;2023-05-15T12:35:34;19.95;;;7.35;;
59388;SDS011;51830;45.202;19.720;2023-05-15T12:38:03;20.08;;;6.68;;
59388;SDS011;51830;45.202;19.720;2023-05-15T12:40:33;19.42;;;7.50;;
59388;SDS011;51830;45.202;19.720;2023-05-15T12:43:03;19.38;;;7.55;;
59388;SDS011;51830;45.202;19.720;2023-05-15T12:45:29;20.05;;;7.45;;
59388;SDS011;51830;45.202;19.720;2023-05-15T12:48:00;22.05;;;7.80;;
59388;SDS011;51830;45.202;19.720;2023-05-15T12:50:27;22.95;;;8.50;;
59388;SDS011;51830;45.202;19.720;2023-05-15T12:52:55;19.08;;;7.25;;
59388;SDS011;51830;45.202;19.720;2023-05-15T12:55:26;19.45;;;7.85;;
59388;SDS011;51830;45.202;19.720;2023-05-15T12:57:53;22.80;;;8.23;;
59388;SDS011;51830;45.202;19.720;2023-05-15T13:00:22;19.65;;;7.25;;
59388;SDS011;51830;45.202;19.720;2023-05-15T13:02:49;22.73;;;9.55;;
59388;SDS011;51830;45.202;19.720;2023-05-15T13:05:15;22.15;;;8.48;;
59388;SDS011;51830;45.202;19.720;2023-05-15T13:07:42;24.33;;;8.30;;
59388;SDS011;51830;45.202;19.720;2023-05-15T13:10:08;20.98;;;8.38;;
59388;SDS011;51830;45.202;19.720;2023-05-15T13:12:35;20.02;;;7.88;;
59388;SDS011;51830;45.202;19.720;2023-05-15T13:15:02;20.90;;;8.43;;
59388;SDS011;51830;45.202;19.720;2023-05-15T13:17:29;22.98;;;8.90;;
59388;SDS011;51830;45.202;19.720;2023-05-15T13:19:55;23.10;;;8.52;;
59388;SDS011;51830;45.202;19.720;2023-05-15T13:22:21;21.48;;;8.52;;
59388;SDS011;51830;45.202;19.720;2023-05-15T13:24:47;23.50;;;9.20;;
59388;SDS011;51830;45.202;19.720;2023-05-15T13:27:13;22.13;;;8.27;;
59388;SDS011;51830;45.202;19.720;2023-05-15T13:29:39;20.95;;;8.77;;
59388;SDS011;51830;45.202;19.720;2023-05-15T13:32:05;20.10;;;8.43;;
59388;SDS011;51830;45.202;19.720;2023-05-15T13:34:31;24.02;;;9.07;;
59388;SDS011;51830;45.202;19.720;2023-05-15T13:36:58;21.17;;;8.85;;
59388;SDS011;51830;45.202;19.720;2023-05-15T13:39:24;21.60;;;8.88;;
59388;SDS011;51830;45.202;19.720;2023-05-15T13:41:50;23.38;;;9.25;;
59388;SDS011;51830;45.202;19.720;2023-05-15T13:44:16;21.15;;;8.95;;
59388;SDS011;51830;45.202;19.720;2023-05-15T13:46:42;25.75;;;9.45;;
59388;SDS011;51830;45.202;19.720;2023-05-15T13:49:08;27.00;;;9.68;;
59388;SDS011;51830;45.202;19.720;2023-05-15T13:51:35;24.48;;;9.73;;
59388;SDS011;51830;45.202;19.720;2023-05-15T13:54:01;26.50;;;10.57;;
59388;SDS011;51830;45.202;19.720;2023-05-15T13:56:27;27.50;;;9.68;;
59388;SDS011;51830;45.202;19.720;2023-05-15T13:58:53;24.73;;;10.23;;
59388;SDS011;51830;45.202;19.720;2023-05-15T14:01:19;25.02;;;11.05;;
59388;SDS011;51830;45.202;19.720;2023-05-15T14:03:46;28.13;;;11.40;;
59388;SDS011;51830;45.202;19.720;2023-05-15T14:06:12;29.15;;;10.40;;
59388;SDS011;51830;45.202;19.720;2023-05-15T14:08:38;29.33;;;10.07;;
59388;SDS011;51830;45.202;19.720;2023-05-15T14:11:04;28.67;;;10.98;;
59388;SDS011;51830;45.202;19.720;2023-05-15T14:13:32;23.95;;;10.80;;
59388;SDS011;51830;45.202;19.720;2023-05-15T14:15:58;25.63;;;10.82;;
59388;SDS011;51830;45.202;19.720;2023-05-15T14:18:24;25.63;;;10.52;;
59388;SDS011;51830;45.202;19.720;2023-05-15T14:20:50;26.38;;;11.45;;
59388;SDS011;51830;45.202;19.720;2023-05-15T14:23:16;25.45;;;11.50;;
59388;SDS011;51830;45.202;19.720;2023-05-15T14:25:42;25.73;;;10.82;;
59388;SDS011;51830;45.202;19.720;2023-05-15T14:28:09;30.33;;;12.15;;
59388;SDS011;51830;45.202;19.720;2023-05-15T14:30:35;28.20;;;11.85;;
59388;SDS011;51830;45.202;19.720;2023-05-15T14:33:01;29.98;;;13.10;;
59388;SDS011;51830;45.202;19.720;2023-05-15T14:35:27;31.30;;;13.45;;
59388;SDS011;51830;45.202;19.720;2023-05-15T14:37:54;28.42;;;11.90;;
59388;SDS011;51830;45.202;19.720;2023-05-15T14:40:20;28.77;;;11.85;;
59388;SDS011;51830;45.202;19.720;2023-05-15T14:42:46;28.48;;;11.95;;